sensor_id;sensor_type;location;lat;lon;timestamp;temperature;humidity
65374;SHT31;52070;53.760;9.678;2023-02-08T00:00:53;-3.36;90.55
65374;SHT31;52070;53.760;9.678;2023-02-08T00:03:21;-3.40;90.61
65374;SHT31;52070;53.760;9.678;2023-02-08T00:05:48;-3.44;90.56
65374;SHT31;52070;53.760;9.678;2023-02-08T00:08:15;-3.44;90.54
65374;SHT31;52070;53.760;9.678;2023-02-08T00:10:42;-3.44;90.63
65374;SHT31;52070;53.760;9.678;2023-02-08T00:13:09;-3.48;90.61
65374;SHT31;52070;53.760;9.678;2023-02-08T00:15:40;-3.50;90.61
65374;SHT31;52070;53.760;9.678;2023-02-08T00:18:07;-3.50;90.60
65374;SHT31;52070;53.760;9.678;2023-02-08T00:20:36;-3.53;90.53
65374;SHT31;52070;53.760;9.678;2023-02-08T00:23:03;-3.53;90.51
65374;SHT31;52070;53.760;9.678;2023-02-08T00:25:30;-3.54;90.48
65374;SHT31;52070;53.760;9.678;2023-02-08T00:27:57;-3.53;90.57
65374;SHT31;52070;53.760;9.678;2023-02-08T00:30:24;-3.54;90.60
65374;SHT31;52070;53.760;9.678;2023-02-08T00:32:51;-3.55;90.51
65374;SHT31;52070;53.760;9.678;2023-02-08T00:35:18;-3.57;90.39
65374;SHT31;52070;53.760;9.678;2023-02-08T00:37:47;-3.61;90.37
65374;SHT31;52070;53.760;9.678;2023-02-08T00:40:13;-3.65;90.35
65374;SHT31;52070;53.760;9.678;2023-02-08T00:42:40;-3.65;90.26
65374;SHT31;52070;53.760;9.678;2023-02-08T00:45:08;-3.68;90.26
65374;SHT31;52070;53.760;9.678;2023-02-08T00:47:35;-3.71;90.34
65374;SHT31;52070;53.760;9.678;2023-02-08T00:50:03;-3.75;90.21
65374;SHT31;52070;53.760;9.678;2023-02-08T00:52:30;-3.78;90.01
65374;SHT31;52070;53.760;9.678;2023-02-08T00:54:59;-3.82;89.98
65374;SHT31;52070;53.760;9.678;2023-02-08T00:57:26;-3.82;90.01
65374;SHT31;52070;53.760;9.678;2023-02-08T00:59:53;-3.79;90.13
65374;SHT31;52070;53.760;9.678;2023-02-08T01:02:20;-3.85;90.05
65374;SHT31;52070;53.760;9.678;2023-02-08T01:04:47;-3.88;89.93
65374;SHT31;52070;53.760;9.678;2023-02-08T01:07:14;-3.94;89.99
65374;SHT31;52070;53.760;9.678;2023-02-08T01:09:41;-3.95;90.06
65374;SHT31;52070;53.760;9.678;2023-02-08T01:12:09;-3.98;90.03
65374;SHT31;52070;53.760;9.678;2023-02-08T01:14:36;-3.97;90.04
65374;SHT31;52070;53.760;9.678;2023-02-08T01:17:03;-3.98;90.11
65374;SHT31;52070;53.760;9.678;2023-02-08T01:19:30;-3.99;90.10
65374;SHT31;52070;53.760;9.678;2023-02-08T01:21:58;-4.05;90.16
65374;SHT31;52070;53.760;9.678;2023-02-08T01:24:25;-4.06;90.22
65374;SHT31;52070;53.760;9.678;2023-02-08T01:26:52;-4.06;90.32
65374;SHT31;52070;53.760;9.678;2023-02-08T01:29:20;-4.12;90.33
65374;SHT31;52070;53.760;9.678;2023-02-08T01:31:47;-4.15;90.34
65374;SHT31;52070;53.760;9.678;2023-02-08T01:34:14;-4.13;90.33
65374;SHT31;52070;53.760;9.678;2023-02-08T01:36:41;-4.15;90.37
65374;SHT31;52070;53.760;9.678;2023-02-08T01:39:09;-4.16;90.36
65374;SHT31;52070;53.760;9.678;2023-02-08T01:41:38;-4.18;90.34
65374;SHT31;52070;53.760;9.678;2023-02-08T01:47:14;-4.18;90.48
65374;SHT31;52070;53.760;9.678;2023-02-08T01:49:41;-4.22;90.43
65374;SHT31;52070;53.760;9.678;2023-02-08T01:52:12;-4.25;90.34
65374;SHT31;52070;53.760;9.678;2023-02-08T01:54:45;-4.28;90.35
65374;SHT31;52070;53.760;9.678;2023-02-08T01:57:14;-4.32;90.37
65374;SHT31;52070;53.760;9.678;2023-02-08T01:59:44;-4.34;90.33
65374;SHT31;52070;53.760;9.678;2023-02-08T02:02:16;-4.34;90.40
65374;SHT31;52070;53.760;9.678;2023-02-08T02:04:46;-4.40;90.46
65374;SHT31;52070;53.760;9.678;2023-02-08T02:07:13;-4.39;90.54
65374;SHT31;52070;53.760;9.678;2023-02-08T02:09:46;-4.43;90.56
65374;SHT31;52070;53.760;9.678;2023-02-08T02:12:16;-4.46;90.54
65374;SHT31;52070;53.760;9.678;2023-02-08T02:14:44;-4.46;90.53
65374;SHT31;52070;53.760;9.678;2023-02-08T02:17:11;-4.49;90.64
65374;SHT31;52070;53.760;9.678;2023-02-08T02:19:48;-4.53;90.67
65374;SHT31;52070;53.760;9.678;2023-02-08T02:25:38;-4.56;90.82
65374;SHT31;52070;53.760;9.678;2023-02-08T02:28:46;-4.59;90.80
65374;SHT31;52070;53.760;9.678;2023-02-08T02:31:44;-4.63;90.80
65374;SHT31;52070;53.760;9.678;2023-02-08T02:34:18;-4.64;90.91
65374;SHT31;52070;53.760;9.678;2023-02-08T02:36:52;-4.62;90.95
65374;SHT31;52070;53.760;9.678;2023-02-08T02:39:28;-4.64;90.93
65374;SHT31;52070;53.760;9.678;2023-02-08T02:42:08;-4.72;90.99
65374;SHT31;52070;53.760;9.678;2023-02-08T02:45:02;-4.73;91.05
65374;SHT31;52070;53.760;9.678;2023-02-08T02:47:38;-4.76;90.97
65374;SHT31;52070;53.760;9.678;2023-02-08T02:50:11;-4.77;90.98
65374;SHT31;52070;53.760;9.678;2023-02-08T02:52:45;-4.77;91.04
65374;SHT31;52070;53.760;9.678;2023-02-08T02:55:15;-4.73;91.15
65374;SHT31;52070;53.760;9.678;2023-02-08T02:57:43;-4.69;91.30
65374;SHT31;52070;53.760;9.678;2023-02-08T03:00:19;-4.66;91.36
65374;SHT31;52070;53.760;9.678;2023-02-08T03:02:48;-4.64;91.44
65374;SHT31;52070;53.760;9.678;2023-02-08T03:05:15;-4.63;91.49
65374;SHT31;52070;53.760;9.678;2023-02-08T03:07:51;-4.60;91.50
65374;SHT31;52070;53.760;9.678;2023-02-08T03:10:32;-4.53;91.57
65374;SHT31;52070;53.760;9.678;2023-02-08T03:13:11;-4.53;91.63
65374;SHT31;52070;53.760;9.678;2023-02-08T03:15:50;-4.50;91.63
65374;SHT31;52070;53.760;9.678;2023-02-08T03:18:30;-4.49;91.66
65374;SHT31;52070;53.760;9.678;2023-02-08T03:21:02;-4.48;91.77
65374;SHT31;52070;53.760;9.678;2023-02-08T03:23:39;-4.43;91.82
65374;SHT31;52070;53.760;9.678;2023-02-08T03:26:11;-4.39;91.83
65374;SHT31;52070;53.760;9.678;2023-02-08T03:28:47;-4.36;91.93
65374;SHT31;52070;53.760;9.678;2023-02-08T03:31:18;-4.34;91.97
65374;SHT31;52070;53.760;9.678;2023-02-08T03:33:51;-4.32;91.98
65374;SHT31;52070;53.760;9.678;2023-02-08T03:36:24;-4.33;92.01
65374;SHT31;52070;53.760;9.678;2023-02-08T03:38:53;-4.30;92.05
65374;SHT31;52070;53.760;9.678;2023-02-08T03:41:23;-4.32;92.05
65374;SHT31;52070;53.760;9.678;2023-02-08T03:43:56;-4.33;92.07
65374;SHT31;52070;53.760;9.678;2023-02-08T03:46:27;-4.32;92.05
65374;SHT31;52070;53.760;9.678;2023-02-08T03:49:01;-4.36;92.05
65374;SHT31;52070;53.760;9.678;2023-02-08T03:51:29;-4.36;92.05
65374;SHT31;52070;53.760;9.678;2023-02-08T03:54:00;-4.33;92.05
65374;SHT31;52070;53.760;9.678;2023-02-08T03:56:34;-4.26;92.09
65374;SHT31;52070;53.760;9.678;2023-02-08T03:59:04;-4.26;92.13
65374;SHT31;52070;53.760;9.678;2023-02-08T04:01:37;-4.23;92.14
65374;SHT31;52070;53.760;9.678;2023-02-08T04:04:08;-4.23;92.17
65374;SHT31;52070;53.760;9.678;2023-02-08T04:06:36;-4.22;92.20
65374;SHT31;52070;53.760;9.678;2023-02-08T04:09:03;-4.05;92.18
65374;SHT31;52070;53.760;9.678;2023-02-08T04:11:30;-4.10;92.20
65374;SHT31;52070;53.760;9.678;2023-02-08T04:13:57;-4.09;92.18
65374;SHT31;52070;53.760;9.678;2023-02-08T04:16:24;-4.08;92.15
65374;SHT31;52070;53.760;9.678;2023-02-08T04:18:51;-4.12;92.11
65374;SHT31;52070;53.760;9.678;2023-02-08T04:21:19;-4.08;92.07
65374;SHT31;52070;53.760;9.678;2023-02-08T04:23:46;-4.08;92.04
65374;SHT31;52070;53.760;9.678;2023-02-08T04:26:13;-4.08;92.06
65374;SHT31;52070;53.760;9.678;2023-02-08T04:28:40;-3.95;92.03
65374;SHT31;52070;53.760;9.678;2023-02-08T04:31:07;-3.75;92.10
65374;SHT31;52070;53.760;9.678;2023-02-08T04:33:34;-3.73;92.09
65374;SHT31;52070;53.760;9.678;2023-02-08T04:36:01;-3.61;91.96
65374;SHT31;52070;53.760;9.678;2023-02-08T04:38:30;-3.47;91.79
65374;SHT31;52070;53.760;9.678;2023-02-08T04:40:56;-3.40;91.50
65374;SHT31;52070;53.760;9.678;2023-02-08T04:43:23;-3.47;91.20
65374;SHT31;52070;53.760;9.678;2023-02-08T04:45:51;-3.37;90.98
65374;SHT31;52070;53.760;9.678;2023-02-08T04:48:18;-3.40;90.82
65374;SHT31;52070;53.760;9.678;2023-02-08T04:50:45;-3.43;90.71
65374;SHT31;52070;53.760;9.678;2023-02-08T04:53:12;-3.46;90.63
65374;SHT31;52070;53.760;9.678;2023-02-08T04:55:41;-3.51;90.61
65374;SHT31;52070;53.760;9.678;2023-02-08T04:58:08;-3.40;90.53
65374;SHT31;52070;53.760;9.678;2023-02-08T05:00:34;-3.36;90.55
65374;SHT31;52070;53.760;9.678;2023-02-08T05:03:01;-3.29;90.42
65374;SHT31;52070;53.760;9.678;2023-02-08T05:05:29;-3.24;90.27
65374;SHT31;52070;53.760;9.678;2023-02-08T05:07:57;-3.23;90.11
65374;SHT31;52070;53.760;9.678;2023-02-08T05:10:24;-3.26;89.93
65374;SHT31;52070;53.760;9.678;2023-02-08T05:12:53;-3.32;89.79
65374;SHT31;52070;53.760;9.678;2023-02-08T05:15:20;-3.34;89.77
65374;SHT31;52070;53.760;9.678;2023-02-08T05:17:47;-3.46;89.70
65374;SHT31;52070;53.760;9.678;2023-02-08T05:20:14;-3.50;89.72
65374;SHT31;52070;53.760;9.678;2023-02-08T05:22:41;-3.53;89.84
65374;SHT31;52070;53.760;9.678;2023-02-08T05:25:08;-3.54;89.95
65374;SHT31;52070;53.760;9.678;2023-02-08T05:27:35;-3.57;90.06
65374;SHT31;52070;53.760;9.678;2023-02-08T05:30:05;-3.61;90.12
65374;SHT31;52070;53.760;9.678;2023-02-08T05:32:32;-3.63;90.21
65374;SHT31;52070;53.760;9.678;2023-02-08T05:34:58;-3.71;90.19
65374;SHT31;52070;53.760;9.678;2023-02-08T05:37:25;-3.75;90.07
65374;SHT31;52070;53.760;9.678;2023-02-08T05:39:52;-3.81;90.07
65374;SHT31;52070;53.760;9.678;2023-02-08T05:42:19;-3.85;90.09
65374;SHT31;52070;53.760;9.678;2023-02-08T05:44:46;-3.91;90.16
65374;SHT31;52070;53.760;9.678;2023-02-08T05:47:15;-3.92;90.21
65374;SHT31;52070;53.760;9.678;2023-02-08T05:49:42;-3.94;90.28
65374;SHT31;52070;53.760;9.678;2023-02-08T05:52:09;-4.01;90.28
65374;SHT31;52070;53.760;9.678;2023-02-08T05:54:35;-4.06;90.32
65374;SHT31;52070;53.760;9.678;2023-02-08T05:57:02;-4.06;90.39
65374;SHT31;52070;53.760;9.678;2023-02-08T05:59:29;-4.12;90.42
65374;SHT31;52070;53.760;9.678;2023-02-08T06:01:56;-4.18;90.39
65374;SHT31;52070;53.760;9.678;2023-02-08T06:04:25;-4.20;90.39
65374;SHT31;52070;53.760;9.678;2023-02-08T06:06:52;-4.25;90.36
65374;SHT31;52070;53.760;9.678;2023-02-08T06:09:19;-4.25;90.39
65374;SHT31;52070;53.760;9.678;2023-02-08T06:11:45;-4.22;90.47
65374;SHT31;52070;53.760;9.678;2023-02-08T06:14:12;-4.16;90.58
65374;SHT31;52070;53.760;9.678;2023-02-08T06:16:39;-4.19;90.58
65374;SHT31;52070;53.760;9.678;2023-02-08T06:19:06;-4.23;90.64
65374;SHT31;52070;53.760;9.678;2023-02-08T06:21:34;-4.22;90.60
65374;SHT31;52070;53.760;9.678;2023-02-08T06:24:01;-4.22;90.69
65374;SHT31;52070;53.760;9.678;2023-02-08T06:26:31;-4.23;90.76
65374;SHT31;52070;53.760;9.678;2023-02-08T06:28:58;-4.28;90.80
65374;SHT31;52070;53.760;9.678;2023-02-08T06:31:25;-4.28;90.79
65374;SHT31;52070;53.760;9.678;2023-02-08T06:33:52;-4.23;90.82
65374;SHT31;52070;53.760;9.678;2023-02-08T06:36:19;-4.26;90.85
65374;SHT31;52070;53.760;9.678;2023-02-08T06:38:47;-4.34;90.84
65374;SHT31;52070;53.760;9.678;2023-02-08T06:41:14;-4.42;90.75
65374;SHT31;52070;53.760;9.678;2023-02-08T06:43:41;-4.48;90.69
65374;SHT31;52070;53.760;9.678;2023-02-08T06:46:08;-4.52;90.70
65374;SHT31;52070;53.760;9.678;2023-02-08T06:48:37;-4.57;90.65
65374;SHT31;52070;53.760;9.678;2023-02-08T06:51:04;-4.66;90.63
65374;SHT31;52070;53.760;9.678;2023-02-08T06:53:31;-4.69;90.65
65374;SHT31;52070;53.760;9.678;2023-02-08T06:55:59;-4.66;90.69
65374;SHT31;52070;53.760;9.678;2023-02-08T06:58:26;-4.64;90.77
65374;SHT31;52070;53.760;9.678;2023-02-08T07:00:53;-4.60;90.90
65374;SHT31;52070;53.760;9.678;2023-02-08T07:03:20;-4.64;90.98
65374;SHT31;52070;53.760;9.678;2023-02-08T07:05:47;-4.67;91.02
65374;SHT31;52070;53.760;9.678;2023-02-08T07:08:14;-4.73;91.03
65374;SHT31;52070;53.760;9.678;2023-02-08T07:10:41;-4.73;90.98
65374;SHT31;52070;53.760;9.678;2023-02-08T07:13:09;-4.76;91.02
65374;SHT31;52070;53.760;9.678;2023-02-08T07:15:36;-4.72;91.08
65374;SHT31;52070;53.760;9.678;2023-02-08T07:18:03;-4.67;91.14
65374;SHT31;52070;53.760;9.678;2023-02-08T07:20:30;-4.62;91.21
65374;SHT31;52070;53.760;9.678;2023-02-08T07:22:57;-4.57;91.25
65374;SHT31;52070;53.760;9.678;2023-02-08T07:25:25;-4.50;91.29
65374;SHT31;52070;53.760;9.678;2023-02-08T07:27:52;-4.50;91.34
65374;SHT31;52070;53.760;9.678;2023-02-08T07:30:20;-4.53;91.45
65374;SHT31;52070;53.760;9.678;2023-02-08T07:32:47;-4.54;91.50
65374;SHT31;52070;53.760;9.678;2023-02-08T07:35:14;-4.56;91.51
65374;SHT31;52070;53.760;9.678;2023-02-08T07:37:41;-4.53;91.53
65374;SHT31;52070;53.760;9.678;2023-02-08T07:40:09;-4.48;91.51
65374;SHT31;52070;53.760;9.678;2023-02-08T07:42:36;-4.42;91.54
65374;SHT31;52070;53.760;9.678;2023-02-08T07:45:04;-4.40;91.55
65374;SHT31;52070;53.760;9.678;2023-02-08T07:47:32;-4.45;91.54
65374;SHT31;52070;53.760;9.678;2023-02-08T07:49:59;-4.42;91.48
65374;SHT31;52070;53.760;9.678;2023-02-08T07:52:26;-4.40;91.53
65374;SHT31;52070;53.760;9.678;2023-02-08T07:54:53;-4.37;91.54
65374;SHT31;52070;53.760;9.678;2023-02-08T07:57:20;-4.30;91.59
65374;SHT31;52070;53.760;9.678;2023-02-08T07:59:48;-4.25;91.63
65374;SHT31;52070;53.760;9.678;2023-02-08T08:02:15;-4.20;91.67
65374;SHT31;52070;53.760;9.678;2023-02-08T08:04:43;-4.19;91.67
65374;SHT31;52070;53.760;9.678;2023-02-08T08:07:10;-4.15;91.70
65374;SHT31;52070;53.760;9.678;2023-02-08T08:09:37;-4.08;91.70
65374;SHT31;52070;53.760;9.678;2023-02-08T08:12:04;-4.03;91.72
65374;SHT31;52070;53.760;9.678;2023-02-08T08:14:31;-3.99;91.73
65374;SHT31;52070;53.760;9.678;2023-02-08T08:16:58;-3.89;91.78
65374;SHT31;52070;53.760;9.678;2023-02-08T08:19:25;-3.79;91.79
65374;SHT31;52070;53.760;9.678;2023-02-08T08:21:54;-3.63;91.80
65374;SHT31;52070;53.760;9.678;2023-02-08T08:24:21;-3.51;91.80
65374;SHT31;52070;53.760;9.678;2023-02-08T08:26:48;-3.48;91.83
65374;SHT31;52070;53.760;9.678;2023-02-08T08:29:15;-3.43;91.80
65374;SHT31;52070;53.760;9.678;2023-02-08T08:31:42;-3.43;91.75
65374;SHT31;52070;53.760;9.678;2023-02-08T08:34:09;-3.36;91.71
65374;SHT31;52070;53.760;9.678;2023-02-08T08:36:36;-3.13;91.63
65374;SHT31;52070;53.760;9.678;2023-02-08T08:39:04;-3.07;91.73
65374;SHT31;52070;53.760;9.678;2023-02-08T08:41:31;-2.82;91.61
65374;SHT31;52070;53.760;9.678;2023-02-08T08:43:58;-2.78;91.48
65374;SHT31;52070;53.760;9.678;2023-02-08T08:46:25;-2.57;91.21
65374;SHT31;52070;53.760;9.678;2023-02-08T08:48:52;-2.41;90.94
65374;SHT31;52070;53.760;9.678;2023-02-08T08:51:19;-2.41;90.65
65374;SHT31;52070;53.760;9.678;2023-02-08T08:53:46;-2.13;90.23
65374;SHT31;52070;53.760;9.678;2023-02-08T08:56:14;-2.07;89.57
65374;SHT31;52070;53.760;9.678;2023-02-08T08:58:41;-1.91;88.90
65374;SHT31;52070;53.760;9.678;2023-02-08T09:01:09;-1.62;87.72
65374;SHT31;52070;53.760;9.678;2023-02-08T09:03:36;-1.52;86.45
65374;SHT31;52070;53.760;9.678;2023-02-08T09:06:03;-1.46;86.02
65374;SHT31;52070;53.760;9.678;2023-02-08T09:08:30;-1.46;85.99
65374;SHT31;52070;53.760;9.678;2023-02-08T09:11:03;-1.41;86.03
65374;SHT31;52070;53.760;9.678;2023-02-08T09:13:32;-1.35;85.60
65374;SHT31;52070;53.760;9.678;2023-02-08T09:16:03;-1.21;85.72
65374;SHT31;52070;53.760;9.678;2023-02-08T09:18:30;-1.27;85.77
65374;SHT31;52070;53.760;9.678;2023-02-08T09:20:57;-1.31;85.93
65374;SHT31;52070;53.760;9.678;2023-02-08T09:23:24;-1.25;86.09
65374;SHT31;52070;53.760;9.678;2023-02-08T09:25:51;-1.08;85.98
65374;SHT31;52070;53.760;9.678;2023-02-08T09:28:18;-1.09;85.73
65374;SHT31;52070;53.760;9.678;2023-02-08T09:30:46;-1.11;85.77
65374;SHT31;52070;53.760;9.678;2023-02-08T09:33:13;-1.12;85.89
65374;SHT31;52070;53.760;9.678;2023-02-08T09:35:40;-0.91;85.70
65374;SHT31;52070;53.760;9.678;2023-02-08T09:38:07;-0.81;85.26
65374;SHT31;52070;53.760;9.678;2023-02-08T09:40:40;-0.66;85.15
65374;SHT31;52070;53.760;9.678;2023-02-08T09:43:12;-0.32;85.06
65374;SHT31;52070;53.760;9.678;2023-02-08T09:45:48;0.17;83.17
65374;SHT31;52070;53.760;9.678;2023-02-08T09:48:20;0.53;80.51
65374;SHT31;52070;53.760;9.678;2023-02-08T09:50:52;0.89;79.23
65374;SHT31;52070;53.760;9.678;2023-02-08T09:53:24;1.28;77.88
65374;SHT31;52070;53.760;9.678;2023-02-08T09:55:57;1.61;75.99
65374;SHT31;52070;53.760;9.678;2023-02-08T09:58:28;1.95;77.10
65374;SHT31;52070;53.760;9.678;2023-02-08T10:00:57;2.23;73.66
65374;SHT31;52070;53.760;9.678;2023-02-08T10:03:32;2.65;73.55
65374;SHT31;52070;53.760;9.678;2023-02-08T10:06:00;2.98;74.58
65374;SHT31;52070;53.760;9.678;2023-02-08T10:08:28;3.24;68.46
65374;SHT31;52070;53.760;9.678;2023-02-08T10:11:05;3.89;73.21
65374;SHT31;52070;53.760;9.678;2023-02-08T10:13:43;4.20;69.27
65374;SHT31;52070;53.760;9.678;2023-02-08T10:16:33;4.48;68.92
65374;SHT31;52070;53.760;9.678;2023-02-08T10:19:09;4.65;68.39
65374;SHT31;52070;53.760;9.678;2023-02-08T10:21:50;4.91;69.17
65374;SHT31;52070;53.760;9.678;2023-02-08T10:24:38;5.05;65.60
65374;SHT31;52070;53.760;9.678;2023-02-08T10:27:11;5.19;65.89
65374;SHT31;52070;53.760;9.678;2023-02-08T10:29:51;4.86;59.80
65374;SHT31;52070;53.760;9.678;2023-02-08T10:32:39;4.69;60.85
65374;SHT31;52070;53.760;9.678;2023-02-08T10:35:11;4.64;63.05
65374;SHT31;52070;53.760;9.678;2023-02-08T10:37:40;4.64;61.54
65374;SHT31;52070;53.760;9.678;2023-02-08T10:40:18;4.65;63.00
65374;SHT31;52070;53.760;9.678;2023-02-08T10:42:57;4.67;63.11
65374;SHT31;52070;53.760;9.678;2023-02-08T10:45:28;4.75;61.21
65374;SHT31;52070;53.760;9.678;2023-02-08T10:47:57;5.05;61.75
65374;SHT31;52070;53.760;9.678;2023-02-08T10:50:30;5.15;58.18
65374;SHT31;52070;53.760;9.678;2023-02-08T10:52:59;4.95;57.51
65374;SHT31;52070;53.760;9.678;2023-02-08T10:55:28;4.95;57.65
65374;SHT31;52070;53.760;9.678;2023-02-08T10:57:58;5.06;58.59
65374;SHT31;52070;53.760;9.678;2023-02-08T11:00:28;4.84;55.11
65374;SHT31;52070;53.760;9.678;2023-02-08T11:02:59;4.79;55.34
65374;SHT31;52070;53.760;9.678;2023-02-08T11:05:32;4.85;54.93
65374;SHT31;52070;53.760;9.678;2023-02-08T11:08:07;4.92;54.57
65374;SHT31;52070;53.760;9.678;2023-02-08T11:10:35;5.12;52.95
65374;SHT31;52070;53.760;9.678;2023-02-08T11:13:05;5.37;52.71
65374;SHT31;52070;53.760;9.678;2023-02-08T11:15:37;5.60;52.39
65374;SHT31;52070;53.760;9.678;2023-02-08T11:18:18;6.10;53.29
65374;SHT31;52070;53.760;9.678;2023-02-08T11:20:47;6.26;48.43
65374;SHT31;52070;53.760;9.678;2023-02-08T11:23:19;6.02;49.67
65374;SHT31;52070;53.760;9.678;2023-02-08T11:25:48;6.32;52.03
65374;SHT31;52070;53.760;9.678;2023-02-08T11:28:27;6.42;51.00
65374;SHT31;52070;53.760;9.678;2023-02-08T11:30:56;6.68;49.65
65374;SHT31;52070;53.760;9.678;2023-02-08T11:33:25;6.39;47.96
65374;SHT31;52070;53.760;9.678;2023-02-08T11:35:54;6.57;49.29
65374;SHT31;52070;53.760;9.678;2023-02-08T11:38:22;6.89;48.82
65374;SHT31;52070;53.760;9.678;2023-02-08T11:40:52;7.28;49.91
65374;SHT31;52070;53.760;9.678;2023-02-08T11:43:23;7.38;48.02
65374;SHT31;52070;53.760;9.678;2023-02-08T11:45:51;7.57;47.34
65374;SHT31;52070;53.760;9.678;2023-02-08T11:48:22;7.51;45.45
65374;SHT31;52070;53.760;9.678;2023-02-08T11:50:55;7.64;46.19
65374;SHT31;52070;53.760;9.678;2023-02-08T11:53:27;7.79;47.35
65374;SHT31;52070;53.760;9.678;2023-02-08T11:56:05;8.03;45.89
65374;SHT31;52070;53.760;9.678;2023-02-08T11:58:33;8.36;45.91
65374;SHT31;52070;53.760;9.678;2023-02-08T12:01:02;8.45;44.12
65374;SHT31;52070;53.760;9.678;2023-02-08T12:03:31;8.42;43.86
65374;SHT31;52070;53.760;9.678;2023-02-08T12:06:10;8.47;43.98
65374;SHT31;52070;53.760;9.678;2023-02-08T12:08:47;8.21;43.64
65374;SHT31;52070;53.760;9.678;2023-02-08T12:11:22;7.81;42.75
65374;SHT31;52070;53.760;9.678;2023-02-08T12:14:11;7.67;44.92
65374;SHT31;52070;53.760;9.678;2023-02-08T12:16:53;7.75;44.52
65374;SHT31;52070;53.760;9.678;2023-02-08T12:19:42;7.89;46.75
65374;SHT31;52070;53.760;9.678;2023-02-08T12:22:19;8.03;43.92
65374;SHT31;52070;53.760;9.678;2023-02-08T12:24:53;8.03;42.45
65374;SHT31;52070;53.760;9.678;2023-02-08T12:27:30;8.19;43.84
65374;SHT31;52070;53.760;9.678;2023-02-08T12:30:06;8.35;42.87
65374;SHT31;52070;53.760;9.678;2023-02-08T12:32:51;8.54;44.36
65374;SHT31;52070;53.760;9.678;2023-02-08T12:38:32;8.73;43.75
65374;SHT31;52070;53.760;9.678;2023-02-08T12:41:25;8.60;43.15
65374;SHT31;52070;53.760;9.678;2023-02-08T12:44:01;8.39;40.99
65374;SHT31;52070;53.760;9.678;2023-02-08T12:46:47;8.12;40.96
65374;SHT31;52070;53.760;9.678;2023-02-08T12:49:45;8.61;44.08
65374;SHT31;52070;53.760;9.678;2023-02-08T12:52:25;8.96;40.85
65374;SHT31;52070;53.760;9.678;2023-02-08T12:55:00;8.84;41.52
65374;SHT31;52070;53.760;9.678;2023-02-08T12:57:30;8.54;40.06
65374;SHT31;52070;53.760;9.678;2023-02-08T13:00:00;7.95;41.29
65374;SHT31;52070;53.760;9.678;2023-02-08T13:02:31;8.10;43.75
65374;SHT31;52070;53.760;9.678;2023-02-08T13:05:03;8.30;44.18
65374;SHT31;52070;53.760;9.678;2023-02-08T13:07:33;8.29;42.00
65374;SHT31;52070;53.760;9.678;2023-02-08T13:10:06;8.16;41.11
65374;SHT31;52070;53.760;9.678;2023-02-08T13:12:37;8.22;41.55
65374;SHT31;52070;53.760;9.678;2023-02-08T13:15:13;8.54;45.27
65374;SHT31;52070;53.760;9.678;2023-02-08T13:17:44;8.80;44.10
65374;SHT31;52070;53.760;9.678;2023-02-08T13:20:27;9.12;44.31
65374;SHT31;52070;53.760;9.678;2023-02-08T13:22:58;8.90;39.11
65374;SHT31;52070;53.760;9.678;2023-02-08T13:25:30;8.61;37.91
65374;SHT31;52070;53.760;9.678;2023-02-08T13:28:01;8.81;40.16
65374;SHT31;52070;53.760;9.678;2023-02-08T13:30:28;9.04;37.86
65374;SHT31;52070;53.760;9.678;2023-02-08T13:32:56;9.04;40.30
65374;SHT31;52070;53.760;9.678;2023-02-08T13:35:25;8.85;37.44
65374;SHT31;52070;53.760;9.678;2023-02-08T13:37:58;8.90;38.62
65374;SHT31;52070;53.760;9.678;2023-02-08T13:40:29;8.92;39.73
65374;SHT31;52070;53.760;9.678;2023-02-08T13:42:59;8.92;39.59
65374;SHT31;52070;53.760;9.678;2023-02-08T13:45:29;9.00;39.68
65374;SHT31;52070;53.760;9.678;2023-02-08T13:47:59;9.01;40.49
65374;SHT31;52070;53.760;9.678;2023-02-08T13:50:42;8.80;40.50
65374;SHT31;52070;53.760;9.678;2023-02-08T13:53:09;8.85;40.64
65374;SHT31;52070;53.760;9.678;2023-02-08T13:55:57;8.85;40.77
65374;SHT31;52070;53.760;9.678;2023-02-08T14:01:19;9.04;39.61
65374;SHT31;52070;53.760;9.678;2023-02-08T14:07:05;8.92;41.96
65374;SHT31;52070;53.760;9.678;2023-02-08T14:09:45;8.52;40.80
65374;SHT31;52070;53.760;9.678;2023-02-08T14:12:21;8.53;43.06
65374;SHT31;52070;53.760;9.678;2023-02-08T14:15:22;8.39;42.22
65374;SHT31;52070;53.760;9.678;2023-02-08T14:17:51;8.46;43.52
65374;SHT31;52070;53.760;9.678;2023-02-08T14:20:24;8.19;42.24
65374;SHT31;52070;53.760;9.678;2023-02-08T14:22:55;8.01;43.13
65374;SHT31;52070;53.760;9.678;2023-02-08T14:25:23;8.06;43.38
65374;SHT31;52070;53.760;9.678;2023-02-08T14:27:54;8.26;43.25
65374;SHT31;52070;53.760;9.678;2023-02-08T14:30:25;8.45;43.72
65374;SHT31;52070;53.760;9.678;2023-02-08T14:33:08;8.45;42.96
65374;SHT31;52070;53.760;9.678;2023-02-08T14:35:40;8.32;43.34
65374;SHT31;52070;53.760;9.678;2023-02-08T14:38:47;8.05;44.29
65374;SHT31;52070;53.760;9.678;2023-02-08T14:44:56;8.03;46.64
65374;SHT31;52070;53.760;9.678;2023-02-08T14:50:30;7.71;43.81
65374;SHT31;52070;53.760;9.678;2023-02-08T14:53:03;7.37;43.95
65374;SHT31;52070;53.760;9.678;2023-02-08T14:55:36;7.51;44.47
65374;SHT31;52070;53.760;9.678;2023-02-08T14:58:04;7.52;43.63
65374;SHT31;52070;53.760;9.678;2023-02-08T15:00:36;7.52;44.34
65374;SHT31;52070;53.760;9.678;2023-02-08T15:03:06;7.52;46.11
65374;SHT31;52070;53.760;9.678;2023-02-08T15:05:43;7.58;44.68
65374;SHT31;52070;53.760;9.678;2023-02-08T15:08:12;7.62;47.63
65374;SHT31;52070;53.760;9.678;2023-02-08T15:10:40;7.65;47.21
65374;SHT31;52070;53.760;9.678;2023-02-08T15:13:16;7.71;47.27
65374;SHT31;52070;53.760;9.678;2023-02-08T15:15:50;7.67;46.08
65374;SHT31;52070;53.760;9.678;2023-02-08T15:18:20;7.41;43.44
65374;SHT31;52070;53.760;9.678;2023-02-08T15:20:59;7.11;45.28
65374;SHT31;52070;53.760;9.678;2023-02-08T15:23:27;6.99;47.82
65374;SHT31;52070;53.760;9.678;2023-02-08T15:25:57;6.90;47.90
65374;SHT31;52070;53.760;9.678;2023-02-08T15:28:27;6.66;49.28
65374;SHT31;52070;53.760;9.678;2023-02-08T15:30:57;6.39;48.17
65374;SHT31;52070;53.760;9.678;2023-02-08T15:33:25;6.20;49.29
65374;SHT31;52070;53.760;9.678;2023-02-08T15:35:57;6.01;48.61
65374;SHT31;52070;53.760;9.678;2023-02-08T15:38:25;5.95;48.16
65374;SHT31;52070;53.760;9.678;2023-02-08T15:41:01;5.83;49.73
65374;SHT31;52070;53.760;9.678;2023-02-08T15:43:29;5.60;49.30
65374;SHT31;52070;53.760;9.678;2023-02-08T15:45:58;5.46;51.43
65374;SHT31;52070;53.760;9.678;2023-02-08T15:48:26;5.26;50.57
65374;SHT31;52070;53.760;9.678;2023-02-08T15:50:54;5.16;50.35
65374;SHT31;52070;53.760;9.678;2023-02-08T15:53:22;4.99;52.58
65374;SHT31;52070;53.760;9.678;2023-02-08T15:55:51;4.84;52.29
65374;SHT31;52070;53.760;9.678;2023-02-08T15:58:25;4.81;50.67
65374;SHT31;52070;53.760;9.678;2023-02-08T16:00:54;4.79;50.41
65374;SHT31;52070;53.760;9.678;2023-02-08T16:03:25;4.61;52.42
65374;SHT31;52070;53.760;9.678;2023-02-08T16:05:55;4.51;51.35
65374;SHT31;52070;53.760;9.678;2023-02-08T16:08:24;4.51;51.17
65374;SHT31;52070;53.760;9.678;2023-02-08T16:10:52;4.47;50.43
65374;SHT31;52070;53.760;9.678;2023-02-08T16:13:22;4.43;50.51
65374;SHT31;52070;53.760;9.678;2023-02-08T16:15:52;4.31;50.86
65374;SHT31;52070;53.760;9.678;2023-02-08T16:18:38;4.14;51.14
65374;SHT31;52070;53.760;9.678;2023-02-08T16:21:18;4.11;51.05